Time;durP1;ratioP1;P1;durP2;ratioP2;P2;SDS_P1;SDS_P2;PMS_P1;PMS_P2;Temp;Humidity;BMP_temperature;BMP_pressure;BME280_temperature;BME280_humidity;BME280_pressure;Samples;Min_cycle;Max_cycle;Signal;HPM_P1;HPM_P2
2023/07/28 00:02:40;;;;;;;;;;;;;;;;;;6183048;28;20109;-65
2023/07/28 00:05:40;;;;;;;1.90;1.10;;;;;;;;;;6184911;28;20251;-64
2023/07/28 00:08:40;;;;;;;;;;;;;;;;;;6187195;28;20114;-65
2023/07/28 00:11:41;;;;;;;1.30;0.80;;;;;;;;;;6184684;28;19914;-68
2023/07/28 00:14:41;;;;;;;1.43;0.90;;;;;;;;;;6187374;28;20048;-66
2023/07/28 00:17:42;;;;;;;;;;;;;;;;;;6181945;28;20273;-66
2023/07/28 00:20:42;;;;;;;1.48;1.00;;;;;;;;;;6186091;28;20359;-63
2023/07/28 00:23:43;;;;;;;1.55;1.00;;;;;;;;;;6182470;28;20054;-63
2023/07/28 00:26:43;;;;;;;;;;;;;;;;;;6183431;28;20030;-65
2023/07/28 00:29:43;;;;;;;1.25;0.95;;;;;;;;;;6184080;28;19914;-66
2023/07/28 00:32:43;;;;;;;;;;;;;;;;;;6181934;28;20109;-69
2023/07/28 00:35:44;;;;;;;0.90;0.80;;;;;;;;;;6187783;28;20283;-65
2023/07/28 00:38:44;;;;;;;;;;;;;;;;;;6183616;28;20132;-66
2023/07/28 00:41:45;;;;;;;1.10;0.98;;;;;;;;;;6181983;28;19918;-66
2023/07/28 00:44:45;;;;;;;;;;;;;;;;;;6183023;28;20387;-65
2023/07/28 00:47:45;;;;;;;2.55;0.90;;;;;;;;;;6180749;28;20382;-65
2023/07/28 00:50:45;;;;;;;;;;;;;;;;;;6186103;28;20116;-66
2023/07/28 00:53:46;;;;;;;1.52;0.85;;;;;;;;;;6185719;28;20306;-65
2023/07/28 00:56:46;;;;;;;;;;;;;;;;;;6191333;28;20026;-65
2023/07/28 00:59:46;;;;;;;1.30;1.10;;;;;;;;;;6189239;28;19940;-65
2023/07/28 01:02:46;;;;;;;;;;;;;;;;;;6188643;28;20038;-68
2023/07/28 01:05:55;;;;;;;1.13;0.95;;;;;;;;;;6190695;28;20273;-63
2023/07/28 01:08:58;;;;;;;2.30;1.10;;;;;;;;;;6190766;28;20432;-66
2023/07/28 01:11:58;;;;;;;1.48;1.00;;;;;;;;;;6188922;28;20147;-65
2023/07/28 01:14:58;;;;;;;;;;;;;;;;;;6189522;28;20031;-67
2023/07/28 01:17:59;;;;;;;0.90;0.77;;;;;;;;;;6186769;28;20478;-64
2023/07/28 01:21:01;;;;;;;1.10;1.00;;;;;;;;;;6191106;28;21468;-64
2023/07/28 01:24:12;;;;;;;1.25;1.15;;;;;;;;;;6188455;28;20117;-64
2023/07/28 01:27:12;;;;;;;;;;;;;;;;;;6188705;28;20053;-67
2023/07/28 01:30:12;;;;;;;0.70;0.70;;;;;;;;;;6187335;28;20003;-67
2023/07/28 01:33:12;;;;;;;1.13;1.00;;;;;;;;;;6186790;28;20022;-64
2023/07/28 01:36:13;;;;;;;;;;;;;;;;;;6188758;28;20076;-64
2023/07/28 01:39:13;;;;;;;0.90;0.87;;;;;;;;;;6190602;28;20420;-63
2023/07/28 01:42:13;;;;;;;;;;;;;;;;;;6201536;28;20017;-67
2023/07/28 01:45:13;;;;;;;0.80;0.80;;;;;;;;;;6200532;28;19950;-65
2023/07/28 01:48:13;;;;;;;;;;;;;;;;;;6199546;28;20023;-65
2023/07/28 01:51:14;;;;;;;1.17;0.82;;;;;;;;;;6191139;28;20333;-66
2023/07/28 01:54:14;;;;;;;;;;;;;;;;;;6197056;28;20328;-66
2023/07/28 01:57:14;;;;;;;0.90;0.65;;;;;;;;;;6195541;28;19913;-66
2023/07/28 02:00:14;;;;;;;;;;;;;;;;;;6196948;28;20031;-65
2023/07/28 02:03:14;;;;;;;1.40;0.88;;;;;;;;;;6196572;28;20000;-64
2023/07/28 02:06:14;;;;;;;;;;;;;;;;;;6194655;28;20026;-64
2023/07/28 02:09:15;;;;;;;0.90;0.80;;;;;;;;;;6196647;28;19936;-63
2023/07/28 02:12:15;;;;;;;;;;;;;;;;;;6193997;28;20229;-64
2023/07/28 02:15:15;;;;;;;0.90;0.70;;;;;;;;;;6188760;28;19918;-63
2023/07/28 02:21:18;;;;;;;0.80;0.80;;;;;;;;;;6238068;22;19999;-67
2023/07/28 02:24:18;;;;;;;;;;;;;;;;;;6205412;28;20032;-68
2023/07/28 02:27:18;;;;;;;1.25;0.90;;;;;;;;;;6213037;28;20211;-68
2023/07/28 02:30:19;;;;;;;;;;;;;;;;;;6214972;28;20032;-67
2023/07/28 02:33:19;;;;;;;1.20;1.00;;;;;;;;;;6231002;28;19940;-68
2023/07/28 02:36:19;;;;;;;;;;;;;;;;;;6221474;28;20026;-68
2023/07/28 02:39:20;;;;;;;0.88;0.88;;;;;;;;;;6224515;28;20294;-68
2023/07/28 02:42:20;;;;;;;;;;;;;;;;;;6222448;28;20025;-68
2023/07/28 02:45:20;;;;;;;1.10;0.90;;;;;;;;;;6178639;28;19978;-68
2023/07/28 02:48:21;;;;;;;;;;;;;;;;;;6219966;28;20316;-67
2023/07/28 02:51:21;;;;;;;0.73;0.70;;;;;;;;;;6218577;28;19909;-67
2023/07/28 02:54:23;;;;;;;0.80;0.77;;;;;;;;;;6220562;28;20017;-67
2023/07/28 02:57:23;;;;;;;0.93;0.88;;;;;;;;;;6230649;28;20112;-68
2023/07/28 03:00:23;;;;;;;;;;;;;;;;;;6227039;28;20477;-68
2023/07/28 03:03:24;;;;;;;1.58;1.10;;;;;;;;;;6231496;28;20258;-68
2023/07/28 03:06:24;;;;;;;;;;;;;;;;;;6227684;28;20033;-68
2023/07/28 03:09:24;;;;;;;0.70;0.70;;;;;;;;;;6230118;28;19909;-68
2023/07/28 03:12:24;;;;;;;;;;;;;;;;;;6233079;28;20022;-68
2023/07/28 03:15:24;;;;;;;1.85;0.90;;;;;;;;;;6220773;28;19909;-68
2023/07/28 03:18:25;;;;;;;;;;;;;;;;;;6221739;28;20107;-68
2023/07/28 03:21:25;;;;;;;1.20;0.80;;;;;;;;;;6212815;28;20056;-68
2023/07/28 03:24:25;;;;;;;;;;;;;;;;;;6223123;28;20032;-69
2023/07/28 03:27:25;;;;;;;1.08;0.98;;;;;;;;;;6214864;28;19917;-68
2023/07/28 03:30:25;;;;;;;;;;;;;;;;;;6231520;28;20025;-68
2023/07/28 03:33:26;;;;;;;0.93;0.82;;;;;;;;;;6207556;28;19914;-68
2023/07/28 03:36:26;;;;;;;;;;;;;;;;;;6210024;28;20158;-67
2023/07/28 03:39:26;;;;;;;1.15;0.93;;;;;;;;;;6210405;28;19920;-67
2023/07/28 03:42:26;;;;;;;;;;;;;;;;;;6223503;28;20390;-67
2023/07/28 03:45:27;;;;;;;1.67;0.88;;;;;;;;;;6220263;28;19991;-69
2023/07/28 03:48:27;;;;;;;;;;;;;;;;;;6223945;28;20306;-68
2023/07/28 03:51:27;;;;;;;1.15;0.75;;;;;;;;;;6209862;28;19921;-68
2023/07/28 03:54:27;;;;;;;;;;;;;;;;;;6207696;28;20181;-70
2023/07/28 03:57:27;;;;;;;0.98;0.80;;;;;;;;;;6205953;28;19917;-69
2023/07/28 04:00:29;;;;;;;1.20;1.10;;;;;;;;;;6195412;28;20073;-69
2023/07/28 04:03:29;;;;;;;;;;;;;;;;;;6195927;28;20522;-68
2023/07/28 04:06:43;;;;;;;2.00;1.17;;;;;;;;;;6209598;28;19913;-68
2023/07/28 04:09:43;;;;;;;1.77;1.30;;;;;;;;;;6202376;28;20052;-68
2023/07/28 04:12:43;;;;;;;;;;;;;;;;;;6203096;28;20046;-67
2023/07/28 04:15:43;;;;;;;3.10;1.70;;;;;;;;;;6191502;28;20076;-69
2023/07/28 04:18:43;;;;;;;;;;;;;;;;;;6192249;28;20026;-68
2023/07/28 04:21:44;;;;;;;1.52;1.23;;;;;;;;;;6201858;28;19936;-69
2023/07/28 04:24:44;;;;;;;;;;;;;;;;;;6199622;28;20019;-69
2023/07/28 04:27:44;;;;;;;2.10;1.48;;;;;;;;;;6193718;28;22117;-67
2023/07/28 04:30:44;;;;;;;;;;;;;;;;;;6201129;28;20129;-67
2023/07/28 04:33:44;;;;;;;2.92;1.40;;;;;;;;;;6192249;28;19925;-67
2023/07/28 04:36:44;;;;;;;;;;;;;;;;;;6210072;28;20036;-68
2023/07/28 04:39:45;;;;;;;1.38;1.15;;;;;;;;;;6188379;28;19961;-69
2023/07/28 04:42:46;;;;;;;;;;;;;;;;;;6196714;28;20177;-69
2023/07/28 04:45:46;;;;;;;1.47;1.00;;;;;;;;;;6196308;28;19917;-70
2023/07/28 04:48:46;;;;;;;;;;;;;;;;;;6200979;28;20030;-69
2023/07/28 04:51:46;;;;;;;1.38;1.02;;;;;;;;;;6194861;28;20023;-69
2023/07/28 04:54:51;;;;;;;;;;;;;;;;;;6023719;28;10000010;-69
2023/07/28 04:57:52;;;;;;;1.13;0.88;;;;;;;;;;6194047;28;20400;-69
2023/07/28 05:00:52;;;;;;;;;;;;;;;;;;6208219;28;20025;-69
2023/07/28 05:03:52;;;;;;;2.22;1.05;;;;;;;;;;6198380;28;20298;-70
2023/07/28 05:06:53;;;;;;;;;;;;;;;;;;6210870;28;20022;-69
2023/07/28 05:09:53;;;;;;;1.73;0.85;;;;;;;;;;6193701;28;19920;-69
2023/07/28 05:12:53;;;;;;;;;;;;;;;;;;6190770;28;20640;-68
2023/07/28 05:15:56;;;;;;;1.38;0.95;;;;;;;;;;6199948;28;20018;-69
2023/07/28 05:18:56;;;;;;;2.03;1.10;;;;;;;;;;6198726;28;20292;-69
2023/07/28 05:21:56;;;;;;;;;;;;;;;;;;6193849;28;20077;-68
2023/07/28 05:24:57;;;;;;;2.22;1.20;;;;;;;;;;6195832;28;20048;-69
2023/07/28 05:27:57;;;;;;;;;;;;;;;;;;6193934;28;20026;-69
2023/07/28 05:31:03;;;;;;;2.03;1.05;;;;;;;;;;6199341;28;19969;-69
2023/07/28 05:34:03;;;;;;;1.58;1.25;;;;;;;;;;6194218;28;20026;-69
2023/07/28 05:37:03;;;;;;;;;;;;;;;;;;6193549;28;20061;-69
2023/07/28 05:40:05;;;;;;;1.98;1.30;;;;;;;;;;6203233;28;19917;-69
2023/07/28 05:43:05;;;;;;;3.45;2.30;;;;;;;;;;6202448;28;20593;-69
2023/07/28 05:46:05;;;;;;;;;;;;;;;;;;6206262;28;20018;-69
2023/07/28 05:49:05;;;;;;;3.42;1.85;;;;;;;;;;6205006;28;19913;-69
2023/07/28 05:52:06;;;;;;;2.05;1.60;;;;;;;;;;6197128;28;20371;-70
2023/07/28 05:55:06;;;;;;;2.70;1.80;;;;;;;;;;6198165;28;20030;-69
2023/07/28 05:58:06;;;;;;;2.40;1.60;;;;;;;;;;6215030;28;20064;-70
2023/07/28 06:01:07;;;;;;;1.98;1.30;;;;;;;;;;6209667;28;20028;-68
2023/07/28 06:04:07;;;;;;;1.70;1.40;;;;;;;;;;6196297;28;20053;-69
2023/07/28 06:07:07;;;;;;;1.33;1.23;;;;;;;;;;6195453;28;21342;-70
2023/07/28 06:10:08;;;;;;;1.53;1.20;;;;;;;;;;6192455;28;20285;-69
2023/07/28 06:13:08;;;;;;;1.98;1.42;;;;;;;;;;6192055;28;20284;-68
2023/07/28 06:16:08;;;;;;;3.23;1.40;;;;;;;;;;6195219;28;20053;-70
2023/07/28 06:19:08;;;;;;;1.65;1.25;;;;;;;;;;6204807;28;20285;-71
2023/07/28 06:22:09;;;;;;;2.20;1.10;;;;;;;;;;6205847;28;20057;-68
2023/07/28 06:25:10;;;;;;;3.15;1.33;;;;;;;;;;6218813;28;20284;-68
2023/07/28 06:28:11;;;;;;;1.48;1.35;;;;;;;;;;5518293;28;10021661;-69
2023/07/28 06:31:11;;;;;;;1.00;1.00;;;;;;;;;;6188654;28;20037;-68
2023/07/28 06:34:11;;;;;;;2.03;1.17;;;;;;;;;;6204852;28;20025;-69
2023/07/28 06:37:12;;;;;;;1.57;1.30;;;;;;;;;;6214541;28;20272;-67
2023/07/28 06:40:12;;;;;;;2.03;1.40;;;;;;;;;;6221566;28;20057;-66
2023/07/28 06:43:12;;;;;;;1.90;1.38;;;;;;;;;;6221134;28;20390;-69
2023/07/28 06:46:13;;;;;;;2.45;1.30;;;;;;;;;;6218476;28;20483;-68
2023/07/28 06:49:13;;;;;;;1.90;1.40;;;;;;;;;;6223739;28;20101;-67
2023/07/28 06:52:13;;;;;;;1.77;1.27;;;;;;;;;;6216889;28;20249;-68
2023/07/28 06:55:17;;;;;;;1.60;1.30;;;;;;;;;;6218203;28;20022;-68
2023/07/28 06:58:17;;;;;;;1.60;1.15;;;;;;;;;;6213806;28;20018;-69
2023/07/28 07:01:17;;;;;;;1.75;1.40;;;;;;;;;;6219093;28;20041;-69
2023/07/28 07:04:19;;;;;;;4.85;1.25;;;;;;;;;;6222214;28;20025;-68
2023/07/28 07:07:19;;;;;;;1.60;1.23;;;;;;;;;;6219996;28;20160;-68
2023/07/28 07:10:20;;;;;;;1.77;1.33;;;;;;;;;;6214718;28;20388;-69
2023/07/28 07:13:20;;;;;;;1.50;1.40;;;;;;;;;;6221990;28;20056;-69
2023/07/28 07:16:21;;;;;;;1.33;1.23;;;;;;;;;;6226200;28;20049;-69
2023/07/28 07:19:22;;;;;;;3.33;1.40;;;;;;;;;;6220250;28;20043;-70
2023/07/28 07:22:22;;;;;;;1.70;1.43;;;;;;;;;;6227440;28;20350;-68
2023/07/28 07:25:22;;;;;;;1.50;1.30;;;;;;;;;;6221030;28;20634;-68
2023/07/28 07:28:22;;;;;;;1.63;1.30;;;;;;;;;;6220300;28;20156;-70
2023/07/28 07:31:23;;;;;;;1.70;1.38;;;;;;;;;;6225486;28;20749;-68
2023/07/28 07:34:26;;;;;;;1.30;1.20;;;;;;;;;;6219706;28;20025;-70
2023/07/28 07:37:34;;;;;;;1.13;1.02;;;;;;;;;;6219405;28;20026;-68
2023/07/28 07:40:35;;;;;;;1.38;1.25;;;;;;;;;;6224142;28;20045;-69
2023/07/28 07:43:35;;;;;;;2.13;1.40;;;;;;;;;;6216912;28;20105;-68
2023/07/28 07:46:35;;;;;;;1.53;1.43;;;;;;;;;;6221776;28;20029;-68
2023/07/28 07:49:38;;;;;;;1.90;1.20;;;;;;;;;;6220641;28;20277;-68
2023/07/28 07:52:44;;;;;;;1.85;1.45;;;;;;;;;;6215140;28;20359;-69
2023/07/28 07:55:44;;;;;;;2.25;1.30;;;;;;;;;;6217880;28;20021;-69
2023/07/28 07:58:51;;;;;;;1.50;1.30;;;;;;;;;;6216966;28;20037;-69
2023/07/28 08:01:55;;;;;;;1.88;1.30;;;;;;;;;;6230096;28;20025;-69
2023/07/28 08:04:55;;;;;;;1.45;1.30;;;;;;;;;;6218947;28;20029;-69
2023/07/28 08:07:55;;;;;;;1.37;1.27;;;;;;;;;;6223790;28;20033;-69
2023/07/28 08:10:56;;;;;;;1.63;1.40;;;;;;;;;;6221695;28;20617;-70
2023/07/28 08:13:56;;;;;;;1.55;1.45;;;;;;;;;;6217908;28;20037;-70
2023/07/28 08:16:56;;;;;;;1.43;1.30;;;;;;;;;;6213870;28;20378;-69
2023/07/28 08:19:57;;;;;;;1.43;1.33;;;;;;;;;;6241122;28;20327;-70
2023/07/28 08:22:57;;;;;;;1.60;1.47;;;;;;;;;;6220570;28;20099;-70
2023/07/28 08:25:58;;;;;;;1.60;1.13;;;;;;;;;;6214227;28;20021;-69
2023/07/28 08:28:58;;;;;;;1.40;1.30;;;;;;;;;;6219146;28;20040;-70
2023/07/28 08:31:58;;;;;;;2.20;1.20;;;;;;;;;;5886770;28;9999765;-70
2023/07/28 08:34:59;;;;;;;1.30;1.20;;;;;;;;;;6219230;28;20452;-70
2023/07/28 08:37:59;;;;;;;2.33;1.27;;;;;;;;;;6216841;28;20437;-70
2023/07/28 08:40:59;;;;;;;1.43;1.33;;;;;;;;;;6216212;28;20280;-70
2023/07/28 08:43:59;;;;;;;1.25;1.15;;;;;;;;;;6217431;28;20010;-69
2023/07/28 08:47:00;;;;;;;1.63;1.40;;;;;;;;;;6216852;28;20497;-71
2023/07/28 08:50:01;;;;;;;1.70;1.60;;;;;;;;;;6219816;28;20029;-70
2023/07/28 08:53:01;;;;;;;1.95;1.30;;;;;;;;;;6219380;28;20486;-70
2023/07/28 08:56:01;;;;;;;1.47;1.10;;;;;;;;;;6221184;28;20467;-70
2023/07/28 08:59:02;;;;;;;1.63;1.40;;;;;;;;;;6221381;28;20032;-70
2023/07/28 09:02:04;;;;;;;2.27;1.20;;;;;;;;;;6220227;28;20026;-71
2023/07/28 09:05:05;;;;;;;1.75;1.45;;;;;;;;;;6214305;28;20026;-69
2023/07/28 09:08:06;;;;;;;1.65;1.25;;;;;;;;;;6217452;28;20386;-70
2023/07/28 09:11:06;;;;;;;1.80;1.30;;;;;;;;;;6218208;28;20026;-70
2023/07/28 09:14:11;;;;;;;1.88;1.60;;;;;;;;;;6214497;28;20034;-70
2023/07/28 09:17:13;;;;;;;1.90;1.70;;;;;;;;;;6220327;28;20033;-70
2023/07/28 09:20:14;;;;;;;1.55;1.45;;;;;;;;;;6223783;28;20030;-69
2023/07/28 09:23:15;;;;;;;2.25;1.42;;;;;;;;;;6218039;28;20021;-70
2023/07/28 09:26:16;;;;;;;1.90;1.65;;;;;;;;;;6218656;28;20112;-71
2023/07/28 09:29:17;;;;;;;2.03;1.60;;;;;;;;;;6224813;28;20026;-70
2023/07/28 09:32:28;;;;;;;2.55;1.65;;;;;;;;;;6225099;28;20021;-70
2023/07/28 09:35:28;;;;;;;2.70;1.73;;;;;;;;;;6234989;28;20060;-70
2023/07/28 09:38:29;;;;;;;2.87;1.87;;;;;;;;;;6240139;28;20022;-71
2023/07/28 09:41:29;;;;;;;2.55;1.40;;;;;;;;;;6247718;28;20099;-69
2023/07/28 09:44:30;;;;;;;1.40;1.30;;;;;;;;;;6234444;28;20471;-69
2023/07/28 09:47:32;;;;;;;1.60;1.50;;;;;;;;;;6219956;28;20491;-69
2023/07/28 09:50:34;;;;;;;1.52;1.42;;;;;;;;;;6219880;28;20030;-71
2023/07/28 09:53:35;;;;;;;2.00;1.80;;;;;;;;;;6220786;28;20025;-70
2023/07/28 09:56:36;;;;;;;1.88;1.70;;;;;;;;;;6221246;28;20029;-70
2023/07/28 09:59:40;;;;;;;2.55;1.90;;;;;;;;;;6221774;28;20038;-71
2023/07/28 10:02:41;;;;;;;1.90;1.80;;;;;;;;;;6211902;28;20368;-70
2023/07/28 10:05:41;;;;;;;1.52;1.42;;;;;;;;;;6217148;28;20029;-70
2023/07/28 10:08:43;;;;;;;1.98;1.77;;;;;;;;;;6217704;28;20066;-70
2023/07/28 10:11:43;;;;;;;1.70;1.60;;;;;;;;;;6230417;28;20756;-71
2023/07/28 10:14:43;;;;;;;4.57;1.70;;;;;;;;;;6216940;28;20044;-70
2023/07/28 10:17:49;;;;;;;2.08;1.80;;;;;;;;;;6216792;28;20061;-71
2023/07/28 10:20:52;;;;;;;2.00;1.80;;;;;;;;;;6213773;28;20407;-69
2023/07/28 10:24:21;;;;;;;1.50;1.40;;;;;;;;;;6218066;28;20409;-71
2023/07/28 10:38:48;;;;;;;1.55;1.45;;;;;;;;;;6142784;29;20051;-70
2023/07/28 10:42:11;;;;;;;2.70;1.52;;;;;;;;;;6146320;28;20061;-71
2023/07/28 10:45:12;;;;;;;1.75;1.65;;;;;;;;;;6207203;28;20124;-71
2023/07/28 10:48:12;;;;;;;1.63;1.52;;;;;;;;;;6217302;28;20380;-70
2023/07/28 10:51:19;;;;;;;1.77;1.67;;;;;;;;;;6216193;28;20030;-71
2023/07/28 10:54:20;;;;;;;2.88;1.40;;;;;;;;;;6213577;28;20065;-70
2023/07/28 10:57:20;;;;;;;1.73;1.40;;;;;;;;;;6216728;28;20030;-70
2023/07/28 11:00:21;;;;;;;2.03;1.17;;;;;;;;;;6212706;28;20065;-70
2023/07/28 11:03:22;;;;;;;1.63;1.42;;;;;;;;;;6216079;28;20371;-70
2023/07/28 11:06:22;;;;;;;1.35;1.25;;;;;;;;;;6217401;28;20013;-70
2023/07/28 11:09:23;;;;;;;1.13;1.03;;;;;;;;;;6218058;28;20045;-71
2023/07/28 11:12:23;;;;;;;0.90;0.90;;;;;;;;;;6217645;28;20096;-70
2023/07/28 11:15:24;;;;;;;1.13;0.95;;;;;;;;;;6216613;28;20024;-70
2023/07/28 11:18:26;;;;;;;1.83;1.02;;;;;;;;;;6217799;28;20022;-70
2023/07/28 11:21:26;;;;;;;1.15;1.02;;;;;;;;;;6218400;28;20113;-70
2023/07/28 11:24:26;;;;;;;3.10;1.20;;;;;;;;;;6215785;28;20030;-70
2023/07/28 11:27:27;;;;;;;1.27;1.10;;;;;;;;;;6215532;28;20265;-70
2023/07/28 11:30:27;;;;;;;1.30;1.20;;;;;;;;;;6216579;28;20033;-69
2023/07/28 11:33:28;;;;;;;3.00;1.43;;;;;;;;;;6217381;28;20017;-70
2023/07/28 11:36:29;;;;;;;1.52;1.42;;;;;;;;;;5866935;28;10000166;-70
2023/07/28 11:39:31;;;;;;;1.30;1.20;;;;;;;;;;6218995;28;20034;-69
2023/07/28 11:42:31;;;;;;;1.33;1.23;;;;;;;;;;6217362;28;20041;-69
2023/07/28 11:45:31;;;;;;;1.53;1.43;;;;;;;;;;6215092;28;20020;-69
2023/07/28 11:48:32;;;;;;;1.55;1.45;;;;;;;;;;6217204;28;20028;-70
2023/07/28 11:51:36;;;;;;;1.30;1.20;;;;;;;;;;6217340;28;20490;-69
2023/07/28 11:54:36;;;;;;;1.60;1.50;;;;;;;;;;6218828;28;20125;-70
2023/07/28 11:57:36;;;;;;;1.42;1.33;;;;;;;;;;6212524;28;20442;-70
2023/07/28 12:00:37;;;;;;;1.63;1.53;;;;;;;;;;6218538;28;20077;-70
2023/07/28 12:03:38;;;;;;;1.25;1.15;;;;;;;;;;6217851;28;20081;-70
2023/07/28 12:06:58;;;;;;;1.50;1.40;;;;;;;;;;6217219;28;20014;-70
2023/07/28 12:10:27;;;;;;;1.70;1.60;;;;;;;;;;6289071;22;20073;-70
2023/07/28 12:13:29;;;;;;;2.13;1.55;;;;;;;;;;6218618;28;20463;-71
2023/07/28 12:16:41;;;;;;;1.40;1.30;;;;;;;;;;6216918;28;20061;-70
2023/07/28 12:19:57;;;;;;;1.83;1.40;;;;;;;;;;6227387;28;20044;-70
2023/07/28 12:23:00;;;;;;;1.67;1.58;;;;;;;;;;6223260;28;20057;-69
2023/07/28 12:26:13;;;;;;;1.50;1.40;;;;;;;;;;6232593;28;20014;-70
2023/07/28 12:29:14;;;;;;;1.30;1.20;;;;;;;;;;6239079;28;20013;-69
2023/07/28 12:32:14;;;;;;;2.60;1.40;;;;;;;;;;6228757;28;20029;-69
2023/07/28 12:35:17;;;;;;;1.67;1.57;;;;;;;;;;6223181;28;20427;-71
2023/07/28 12:42:05;;;;;;;1.67;1.58;;;;;;;;;;6219605;28;20303;-70
2023/07/28 12:45:15;;;;;;;1.67;1.58;;;;;;;;;;6228287;28;20026;-70
2023/07/28 12:48:16;;;;;;;1.52;1.42;;;;;;;;;;6236053;28;20127;-71
2023/07/28 12:51:16;;;;;;;1.80;1.33;;;;;;;;;;6228232;28;20026;-71
2023/07/28 12:54:16;;;;;;;2.73;1.30;;;;;;;;;;6224486;28;20017;-69
2023/07/28 12:57:16;;;;;;;2.93;1.40;;;;;;;;;;6231421;28;20108;-69
2023/07/28 13:00:17;;;;;;;1.60;1.50;;;;;;;;;;6234081;28;20121;-69
2023/07/28 13:03:18;;;;;;;3.50;1.20;;;;;;;;;;6224217;28;20260;-69
2023/07/28 13:06:19;;;;;;;1.60;1.50;;;;;;;;;;6224164;28;20022;-70
2023/07/28 13:09:19;;;;;;;1.95;1.67;;;;;;;;;;6223553;28;20021;-68
2023/07/28 13:12:19;;;;;;;1.77;1.37;;;;;;;;;;6234776;28;20029;-65
2023/07/28 13:15:19;;;;;;;1.20;1.10;;;;;;;;;;6232684;28;20252;-67
2023/07/28 13:18:20;;;;;;;1.08;1.00;;;;;;;;;;6233238;28;20245;-72
2023/07/28 13:21:20;;;;;;;1.92;1.27;;;;;;;;;;6218899;28;20502;-71
2023/07/28 13:24:21;;;;;;;1.30;1.20;;;;;;;;;;6230033;28;20358;-67
2023/07/28 13:27:21;;;;;;;1.23;1.13;;;;;;;;;;6236125;28;20020;-65
2023/07/28 13:30:21;;;;;;;1.50;1.20;;;;;;;;;;6214955;28;20300;-66
2023/07/28 13:33:22;;;;;;;1.30;1.20;;;;;;;;;;6226365;28;20280;-67
2023/07/28 13:36:31;;;;;;;2.78;1.34;;;;;;;;;;6199470;28;10000513;-67
2023/07/28 13:39:31;;;;;;;1.97;1.27;;;;;;;;;;6228789;28;20261;-68
2023/07/28 13:42:31;;;;;;;2.10;1.43;;;;;;;;;;6228431;28;20288;-68
2023/07/28 13:45:32;;;;;;;1.40;1.20;;;;;;;;;;6233272;28;20024;-69
2023/07/28 13:48:32;;;;;;;1.53;1.43;;;;;;;;;;6232003;28;20048;-67
2023/07/28 13:51:32;;;;;;;1.27;1.17;;;;;;;;;;6235422;28;20013;-69
2023/07/28 13:54:32;;;;;;;1.33;1.23;;;;;;;;;;6219324;28;20034;-69
2023/07/28 13:57:33;;;;;;;1.60;1.50;;;;;;;;;;6223151;28;20025;-69
2023/07/28 14:00:33;;;;;;;1.90;1.40;;;;;;;;;;6228312;28;20112;-70
2023/07/28 14:03:34;;;;;;;1.70;1.50;;;;;;;;;;6226875;28;20014;-70
2023/07/28 14:06:34;;;;;;;1.43;1.33;;;;;;;;;;6229284;28;20093;-69
2023/07/28 14:09:34;;;;;;;1.63;1.53;;;;;;;;;;6228664;28;20017;-70
2023/07/28 14:12:34;;;;;;;1.70;1.60;;;;;;;;;;6235284;28;20350;-69
2023/07/28 14:15:35;;;;;;;1.80;1.70;;;;;;;;;;6233549;28;20402;-70
2023/07/28 14:18:40;;;;;;;1.45;1.35;;;;;;;;;;6233112;28;20034;-70
2023/07/28 14:21:40;;;;;;;1.52;1.42;;;;;;;;;;6232912;23;20044;-68
2023/07/28 14:24:40;;;;;;;1.57;1.40;;;;;;;;;;6210617;28;20097;-68
2023/07/28 14:27:41;;;;;;;3.03;2.83;;;;;;;;;;6221118;28;20768;-69
2023/07/28 14:30:46;;;;;;;2.67;2.47;;;;;;;;;;6220554;28;20017;-69
2023/07/28 14:33:46;;;;;;;3.15;1.83;;;;;;;;;;6224580;28;20317;-69
2023/07/28 14:36:46;;;;;;;2.33;2.13;;;;;;;;;;6220581;28;20084;-70
2023/07/28 14:39:46;;;;;;;2.70;1.60;;;;;;;;;;6220210;28;20022;-70
2023/07/28 14:42:46;;;;;;;3.33;1.90;;;;;;;;;;6235055;28;20045;-68
2023/07/28 14:45:49;;;;;;;1.57;1.43;;;;;;;;;;6218972;28;20029;-67
2023/07/28 14:48:51;;;;;;;2.22;1.25;;;;;;;;;;6219105;28;20040;-68
2023/07/28 14:51:52;;;;;;;1.45;1.35;;;;;;;;;;6220440;28;20037;-69
2023/07/28 14:54:52;;;;;;;2.10;1.90;;;;;;;;;;6219663;28;20395;-69
2023/07/28 14:57:52;;;;;;;2.67;2.47;;;;;;;;;;6218200;28;20022;-70
2023/07/28 15:00:52;;;;;;;1.90;1.80;;;;;;;;;;6220249;28;20367;-69
2023/07/28 15:03:53;;;;;;;1.50;1.40;;;;;;;;;;6222709;28;20406;-70
2023/07/28 15:06:53;;;;;;;1.50;1.40;;;;;;;;;;6220540;28;20467;-70
2023/07/28 15:09:53;;;;;;;1.60;1.50;;;;;;;;;;6219537;28;20022;-70
2023/07/28 15:12:53;;;;;;;1.93;1.37;;;;;;;;;;6219585;28;20022;-69
2023/07/28 15:15:54;;;;;;;1.70;1.60;;;;;;;;;;6219538;28;20033;-69
2023/07/28 15:18:55;;;;;;;1.27;1.17;;;;;;;;;;6220194;28;20080;-69
2023/07/28 15:21:56;;;;;;;1.33;1.23;;;;;;;;;;6223497;28;20078;-70
2023/07/28 15:24:57;;;;;;;4.13;2.35;;;;;;;;;;6219866;28;20014;-69
2023/07/28 15:27:57;;;;;;;2.97;1.70;;;;;;;;;;6220171;28;20025;-69
2023/07/28 15:30:57;;;;;;;2.13;1.88;;;;;;;;;;6219528;28;20038;-68
2023/07/28 15:33:57;;;;;;;1.47;1.37;;;;;;;;;;6219780;28;20080;-68
2023/07/28 15:37:01;;;;;;;2.07;1.73;;;;;;;;;;6219452;28;20275;-69
2023/07/28 15:40:02;;;;;;;1.63;1.52;;;;;;;;;;6219827;28;20025;-69
2023/07/28 15:43:02;;;;;;;1.70;1.60;;;;;;;;;;6233962;28;20589;-68
2023/07/28 15:46:04;;;;;;;1.50;1.40;;;;;;;;;;6219203;28;20025;-68
2023/07/28 15:49:05;;;;;;;2.38;1.35;;;;;;;;;;6219436;28;20028;-71
2023/07/28 15:52:06;;;;;;;2.58;1.90;;;;;;;;;;6231655;28;20033;-67
2023/07/28 15:55:06;;;;;;;3.08;2.78;;;;;;;;;;6216457;28;20050;-69
2023/07/28 15:58:07;;;;;;;2.95;2.33;;;;;;;;;;6217784;28;20025;-68
2023/07/28 16:01:07;;;;;;;3.17;2.53;;;;;;;;;;6217418;28;20512;-69
2023/07/28 16:04:07;;;;;;;2.10;1.90;;;;;;;;;;6228576;28;20236;-68
2023/07/28 16:07:08;;;;;;;1.65;1.55;;;;;;;;;;6233686;28;20060;-68
2023/07/28 16:10:11;;;;;;;1.75;1.55;;;;;;;;;;6230160;28;20056;-68
2023/07/28 16:13:11;;;;;;;1.60;1.50;;;;;;;;;;6216386;28;20025;-70
2023/07/28 16:16:12;;;;;;;2.03;1.67;;;;;;;;;;6232441;28;20557;-69
2023/07/28 16:19:12;;;;;;;1.60;1.50;;;;;;;;;;6219886;28;20273;-70
2023/07/28 16:22:13;;;;;;;2.13;1.45;;;;;;;;;;6216130;28;20481;-68
2023/07/28 16:25:13;;;;;;;2.15;1.60;;;;;;;;;;6212990;28;20033;-69
2023/07/28 16:28:14;;;;;;;1.52;1.42;;;;;;;;;;6212291;28;20041;-69
2023/07/28 16:31:14;;;;;;;1.52;1.42;;;;;;;;;;6225990;28;20109;-70
2023/07/28 16:34:14;;;;;;;2.63;2.00;;;;;;;;;;6209870;28;20112;-70
2023/07/28 16:37:15;;;;;;;2.85;2.00;;;;;;;;;;6215275;28;20026;-70
2023/07/28 16:40:15;;;;;;;2.00;1.67;;;;;;;;;;6231982;28;20048;-70
2023/07/28 16:43:15;;;;;;;1.90;1.67;;;;;;;;;;6216812;28;20075;-70
2023/07/28 16:46:15;;;;;;;1.73;1.37;;;;;;;;;;6216519;28;20870;-69
2023/07/28 16:49:16;;;;;;;2.57;1.63;;;;;;;;;;6216674;28;20045;-71
2023/07/28 16:52:16;;;;;;;2.90;2.60;;;;;;;;;;6220990;28;20032;-70
2023/07/28 16:55:16;;;;;;;2.10;1.90;;;;;;;;;;6213692;28;20022;-70
2023/07/28 16:58:16;;;;;;;2.20;1.75;;;;;;;;;;6213407;28;20075;-69
2023/07/28 17:01:19;;;;;;;3.75;1.92;;;;;;;;;;6211973;28;20505;-70
2023/07/28 17:04:19;;;;;;;3.28;2.97;;;;;;;;;;6215792;28;20022;-69
2023/07/28 17:07:19;;;;;;;2.15;1.95;;;;;;;;;;5878538;28;9999998;-69
2023/07/28 17:10:19;;;;;;;2.13;1.95;;;;;;;;;;6210858;28;20497;-71
2023/07/28 17:13:20;;;;;;;1.60;1.50;;;;;;;;;;6214199;28;20018;-71
2023/07/28 17:16:21;;;;;;;1.52;1.38;;;;;;;;;;6213363;28;20276;-70
2023/07/28 17:19:22;;;;;;;1.70;1.60;;;;;;;;;;6213965;28;20025;-70
2023/07/28 17:22:22;;;;;;;1.67;1.58;;;;;;;;;;6209781;28;20028;-69
2023/07/28 17:25:22;;;;;;;1.88;1.67;;;;;;;;;;6216681;28;20495;-69
2023/07/28 17:28:22;;;;;;;1.60;1.50;;;;;;;;;;6214056;28;20077;-69
2023/07/28 17:31:23;;;;;;;3.80;3.30;;;;;;;;;;6211418;28;20418;-69
2023/07/28 17:34:23;;;;;;;2.50;2.20;;;;;;;;;;6214925;28;20628;-69
2023/07/28 17:37:23;;;;;;;2.17;1.67;;;;;;;;;;6217495;28;20034;-69
2023/07/28 17:40:23;;;;;;;2.20;2.00;;;;;;;;;;6219339;28;20076;-69
2023/07/28 17:43:24;;;;;;;2.50;2.30;;;;;;;;;;6233910;28;20961;-67
2023/07/28 17:46:24;;;;;;;4.90;2.00;;;;;;;;;;6235391;28;20367;-67
2023/07/28 17:49:24;;;;;;;2.20;2.00;;;;;;;;;;6222036;28;20022;-67
2023/07/28 17:52:24;;;;;;;3.95;1.60;;;;;;;;;;6218095;28;20037;-68
2023/07/28 17:55:25;;;;;;;1.90;1.70;;;;;;;;;;6212691;28;20029;-66
2023/07/28 17:58:25;;;;;;;2.55;1.60;;;;;;;;;;6220889;28;20266;-66
2023/07/28 18:01:26;;;;;;;1.55;1.40;;;;;;;;;;6213195;28;20033;-66
2023/07/28 18:04:26;;;;;;;2.80;2.10;;;;;;;;;;6219211;28;20382;-68
2023/07/28 18:07:26;;;;;;;2.03;1.60;;;;;;;;;;6213263;28;20502;-66
2023/07/28 18:10:26;;;;;;;2.07;1.70;;;;;;;;;;6212945;28;20793;-67
2023/07/28 18:13:27;;;;;;;2.00;1.80;;;;;;;;;;6218787;28;20065;-66
2023/07/28 18:16:27;;;;;;;2.20;1.67;;;;;;;;;;6217221;28;20288;-68
2023/07/28 18:19:27;;;;;;;2.30;1.95;;;;;;;;;;6216505;28;20033;-71
2023/07/28 18:22:27;;;;;;;1.40;1.27;;;;;;;;;;6212593;28;20462;-67
2023/07/28 18:25:28;;;;;;;3.27;1.77;;;;;;;;;;6218504;28;20591;-67
2023/07/28 18:28:28;;;;;;;2.35;1.83;;;;;;;;;;6221250;28;20491;-67
2023/07/28 18:31:28;;;;;;;1.90;1.60;;;;;;;;;;6214170;28;20030;-69
2023/07/28 18:34:29;;;;;;;2.43;1.50;;;;;;;;;;6215697;28;20022;-66
2023/07/28 18:37:29;;;;;;;3.33;2.10;;;;;;;;;;6215563;28;20467;-67
2023/07/28 18:40:29;;;;;;;2.50;1.97;;;;;;;;;;6218577;28;20479;-67
2023/07/28 18:43:31;;;;;;;1.83;1.65;;;;;;;;;;6220111;28;20722;-66